sensor_id;sensor_type;location;lat;lon;timestamp;pressure;altitude;pressure_sealevel;temperature;humidity
39443;BME280;25147;52.142;9.960;2023-04-19T00:00:41;101797.66;;;7.74;70.57
39443;BME280;25147;52.142;9.960;2023-04-19T00:03:09;101706.38;;;7.21;69.07
39443;BME280;25147;52.142;9.960;2023-04-19T00:05:36;101913.00;;;8.08;67.28
39443;BME280;25147;52.142;9.960;2023-04-19T00:08:05;101861.63;;;8.06;66.27
39443;BME280;25147;52.142;9.960;2023-04-19T00:10:32;101861.59;;;8.02;64.81
39443;BME280;25147;52.142;9.960;2023-04-19T00:13:00;101830.97;;;7.91;64.52
39443;BME280;25147;52.142;9.960;2023-04-19T00:15:27;101789.53;;;7.59;64.06
39443;BME280;25147;52.142;9.960;2023-04-19T00:17:53;101808.84;;;7.69;64.08
39443;BME280;25147;52.142;9.960;2023-04-19T00:20:21;101756.25;;;7.41;63.30
39443;BME280;25147;52.142;9.960;2023-04-19T00:22:48;101891.81;;;7.91;62.41
39443;BME280;25147;52.142;9.960;2023-04-19T00:25:16;101326.47;;;4.88;61.78
39443;BME280;25147;52.142;9.960;2023-04-19T00:27:43;101588.72;;;6.05;61.46
39443;BME280;25147;52.142;9.960;2023-04-19T00:30:10;101856.09;;;7.87;60.68
39443;BME280;25147;52.142;9.960;2023-04-19T00:32:37;101867.34;;;7.84;58.93
39443;BME280;25147;52.142;9.960;2023-04-19T00:35:05;101890.78;;;7.83;58.17
39443;BME280;25147;52.142;9.960;2023-04-19T00:37:32;101541.81;;;5.99;56.76
39443;BME280;25147;52.142;9.960;2023-04-19T00:39:59;101872.41;;;7.77;55.87
39443;BME280;25147;52.142;9.960;2023-04-19T00:42:27;101545.03;;;5.90;55.60
39443;BME280;25147;52.142;9.960;2023-04-19T00:44:54;101601.00;;;6.12;55.24
39443;BME280;25147;52.142;9.960;2023-04-19T00:47:21;101615.13;;;6.23;55.04
39443;BME280;25147;52.142;9.960;2023-04-19T00:49:48;101637.91;;;6.35;55.24
39443;BME280;25147;52.142;9.960;2023-04-19T00:52:15;101468.69;;;5.03;55.14
39443;BME280;25147;52.142;9.960;2023-04-19T00:54:42;101811.47;;;7.23;54.93
39443;BME280;25147;52.142;9.960;2023-04-19T00:57:09;101718.88;;;6.52;55.14
39443;BME280;25147;52.142;9.960;2023-04-19T00:59:38;101922.31;;;7.51;54.98
39443;BME280;25147;52.142;9.960;2023-04-19T01:02:05;101888.34;;;7.47;54.84
39443;BME280;25147;52.142;9.960;2023-04-19T01:04:33;101440.97;;;4.66;55.22
39443;BME280;25147;52.142;9.960;2023-04-19T01:07:00;101878.44;;;7.30;55.67
39443;BME280;25147;52.142;9.960;2023-04-19T01:09:27;101730.44;;;6.26;55.77
39443;BME280;25147;52.142;9.960;2023-04-19T01:11:54;101563.53;;;5.25;56.08
39443;BME280;25147;52.142;9.960;2023-04-19T01:14:21;101697.88;;;6.03;56.48
39443;BME280;25147;52.142;9.960;2023-04-19T01:16:49;101912.38;;;6.94;56.90
39443;BME280;25147;52.142;9.960;2023-04-19T01:19:17;101880.09;;;6.86;57.48
39443;BME280;25147;52.142;9.960;2023-04-19T01:21:44;101816.22;;;6.24;57.75
39443;BME280;25147;52.142;9.960;2023-04-19T01:24:13;101393.03;;;3.81;58.09
39443;BME280;25147;52.142;9.960;2023-04-19T01:26:39;101747.59;;;5.82;58.97
39443;BME280;25147;52.142;9.960;2023-04-19T01:29:06;101560.22;;;4.62;59.32
39443;BME280;25147;52.142;9.960;2023-04-19T01:31:33;101419.69;;;3.77;59.57
39443;BME280;25147;52.142;9.960;2023-04-19T01:34:00;101867.50;;;6.30;60.30
39443;BME280;25147;52.142;9.960;2023-04-19T01:36:26;101334.78;;;3.05;60.62
39443;BME280;25147;52.142;9.960;2023-04-19T01:38:53;101638.72;;;4.57;61.56
39443;BME280;25147;52.142;9.960;2023-04-19T01:41:21;101415.53;;;3.24;61.68
39443;BME280;25147;52.142;9.960;2023-04-19T01:43:51;101798.94;;;5.58;62.45
39443;BME280;25147;52.142;9.960;2023-04-19T01:46:18;101598.84;;;4.23;62.32
39443;BME280;25147;52.142;9.960;2023-04-19T01:48:45;101691.28;;;4.81;62.83
39443;BME280;25147;52.142;9.960;2023-04-19T01:51:12;101786.19;;;5.03;63.31
39443;BME280;25147;52.142;9.960;2023-04-19T01:53:39;101705.53;;;4.66;63.87
39443;BME280;25147;52.142;9.960;2023-04-19T01:56:06;101693.19;;;4.57;64.18
39443;BME280;25147;52.142;9.960;2023-04-19T01:58:34;101886.22;;;5.53;64.78
39443;BME280;25147;52.142;9.960;2023-04-19T02:01:01;101878.22;;;5.45;65.29
39443;BME280;25147;52.142;9.960;2023-04-19T02:03:28;101899.63;;;5.36;65.77
39443;BME280;25147;52.142;9.960;2023-04-19T02:05:54;101894.25;;;5.30;66.17
39443;BME280;25147;52.142;9.960;2023-04-19T02:08:21;101465.59;;;2.70;66.23
39443;BME280;25147;52.142;9.960;2023-04-19T02:10:48;101463.59;;;2.61;66.51
39443;BME280;25147;52.142;9.960;2023-04-19T02:13:15;101841.13;;;4.89;66.48
39443;BME280;25147;52.142;9.960;2023-04-19T02:15:43;101422.81;;;2.52;66.74
39443;BME280;25147;52.142;9.960;2023-04-19T02:18:09;101683.81;;;4.03;67.06
39443;BME280;25147;52.142;9.960;2023-04-19T02:20:37;101880.59;;;5.07;67.44
39443;BME280;25147;52.142;9.960;2023-04-19T02:23:04;101857.69;;;4.94;67.64
39443;BME280;25147;52.142;9.960;2023-04-19T02:25:31;101863.00;;;4.97;67.93
39443;BME280;25147;52.142;9.960;2023-04-19T02:27:58;101868.06;;;4.94;68.17
39443;BME280;25147;52.142;9.960;2023-04-19T02:30:24;101440.75;;;2.22;68.36
39443;BME280;25147;52.142;9.960;2023-04-19T02:32:52;101796.03;;;4.29;69.15
39443;BME280;25147;52.142;9.960;2023-04-19T02:35:20;101834.16;;;4.59;69.38
39443;BME280;25147;52.142;9.960;2023-04-19T02:37:47;101871.09;;;4.79;69.90
39443;BME280;25147;52.142;9.960;2023-04-19T02:40:14;101763.34;;;4.06;70.24
39443;BME280;25147;52.142;9.960;2023-04-19T02:42:40;101670.66;;;3.42;70.50
39443;BME280;25147;52.142;9.960;2023-04-19T02:45:08;101906.16;;;4.66;70.55
39443;BME280;25147;52.142;9.960;2023-04-19T02:47:35;101543.94;;;2.67;70.78
39443;BME280;25147;52.142;9.960;2023-04-19T02:50:04;101635.25;;;3.16;70.94
39443;BME280;25147;52.142;9.960;2023-04-19T02:52:31;101902.47;;;4.59;71.24
39443;BME280;25147;52.142;9.960;2023-04-19T02:54:58;101737.59;;;3.85;71.26
39443;BME280;25147;52.142;9.960;2023-04-19T02:57:25;101551.50;;;2.61;70.92
39443;BME280;25147;52.142;9.960;2023-04-19T02:59:52;101426.75;;;1.91;71.24
39443;BME280;25147;52.142;9.960;2023-04-19T03:02:18;101841.16;;;4.34;71.51
39443;BME280;25147;52.142;9.960;2023-04-19T03:04:45;101651.00;;;3.22;71.71
39443;BME280;25147;52.142;9.960;2023-04-19T03:07:14;101419.56;;;1.58;71.84
39443;BME280;25147;52.142;9.960;2023-04-19T03:09:41;101862.00;;;4.37;72.26
39443;BME280;25147;52.142;9.960;2023-04-19T03:12:07;101639.31;;;3.08;72.39
39443;BME280;25147;52.142;9.960;2023-04-19T03:14:34;101770.00;;;3.72;72.46
39443;BME280;25147;52.142;9.960;2023-04-19T03:17:01;101808.88;;;3.97;72.78
39443;BME280;25147;52.142;9.960;2023-04-19T03:19:28;101772.53;;;3.70;73.07
39443;BME280;25147;52.142;9.960;2023-04-19T03:21:55;101695.94;;;3.26;73.10
39443;BME280;25147;52.142;9.960;2023-04-19T03:24:29;101568.22;;;2.47;73.30
39443;BME280;25147;52.142;9.960;2023-04-19T03:26:56;101829.66;;;3.99;73.62
39443;BME280;25147;52.142;9.960;2023-04-19T03:29:23;101677.25;;;3.09;73.97
39443;BME280;25147;52.142;9.960;2023-04-19T03:31:50;101857.56;;;4.08;74.15
39443;BME280;25147;52.142;9.960;2023-04-19T03:34:17;101333.28;;;1.04;74.09
39443;BME280;25147;52.142;9.960;2023-04-19T03:36:44;101666.41;;;2.93;74.36
39443;BME280;25147;52.142;9.960;2023-04-19T03:39:11;101694.72;;;2.90;74.83
39443;BME280;25147;52.142;9.960;2023-04-19T03:41:39;101702.19;;;3.07;74.79
39443;BME280;25147;52.142;9.960;2023-04-19T03:44:06;101884.78;;;3.95;75.29
39443;BME280;25147;52.142;9.960;2023-04-19T03:46:33;101648.97;;;2.64;75.35
39443;BME280;25147;52.142;9.960;2023-04-19T03:48:59;101383.69;;;0.95;75.50
39443;BME280;25147;52.142;9.960;2023-04-19T03:51:26;101849.22;;;3.91;75.89
39443;BME280;25147;52.142;9.960;2023-04-19T03:53:53;101360.38;;;0.92;75.87
39443;BME280;25147;52.142;9.960;2023-04-19T03:56:20;101743.72;;;3.10;76.58
39443;BME280;25147;52.142;9.960;2023-04-19T03:58:49;101569.75;;;2.17;76.42
39443;BME280;25147;52.142;9.960;2023-04-19T04:01:17;101606.38;;;2.30;76.61
39443;BME280;25147;52.142;9.960;2023-04-19T04:03:44;101589.69;;;2.21;77.02
39443;BME280;25147;52.142;9.960;2023-04-19T04:06:10;101863.41;;;3.76;77.16
39443;BME280;25147;52.142;9.960;2023-04-19T04:08:37;101649.28;;;2.49;77.62
39443;BME280;25147;52.142;9.960;2023-04-19T04:11:04;101690.00;;;2.78;77.71
39443;BME280;25147;52.142;9.960;2023-04-19T04:13:31;101766.38;;;3.17;77.90
39443;BME280;25147;52.142;9.960;2023-04-19T04:16:00;101874.22;;;3.65;77.93
39443;BME280;25147;52.142;9.960;2023-04-19T04:18:26;101541.09;;;1.65;77.90
39443;BME280;25147;52.142;9.960;2023-04-19T04:20:53;101616.53;;;2.25;78.24
39443;BME280;25147;52.142;9.960;2023-04-19T04:23:20;101865.47;;;3.61;78.46
39443;BME280;25147;52.142;9.960;2023-04-19T04:25:55;101656.06;;;2.23;78.47
39443;BME280;25147;52.142;9.960;2023-04-19T04:28:23;101554.72;;;1.60;78.81
39443;BME280;25147;52.142;9.960;2023-04-19T04:30:50;101873.72;;;3.51;79.16
39443;BME280;25147;52.142;9.960;2023-04-19T04:33:19;101633.16;;;2.09;79.03
39443;BME280;25147;52.142;9.960;2023-04-19T04:35:45;101590.56;;;1.98;79.16
39443;BME280;25147;52.142;9.960;2023-04-19T04:38:12;101866.91;;;3.53;79.75
39443;BME280;25147;52.142;9.960;2023-04-19T04:40:39;101857.25;;;3.49;79.71
39443;BME280;25147;52.142;9.960;2023-04-19T04:43:07;101694.44;;;2.58;79.63
39443;BME280;25147;52.142;9.960;2023-04-19T04:45:34;101841.13;;;3.09;79.93
39443;BME280;25147;52.142;9.960;2023-04-19T04:48:02;101857.41;;;3.53;80.00
39443;BME280;25147;52.142;9.960;2023-04-19T04:50:31;101860.00;;;3.53;80.29
39443;BME280;25147;52.142;9.960;2023-04-19T04:52:58;101434.78;;;1.06;79.94
39443;BME280;25147;52.142;9.960;2023-04-19T04:55:25;101863.53;;;3.55;80.33
39443;BME280;25147;52.142;9.960;2023-04-19T04:57:54;101552.50;;;1.70;80.20
39443;BME280;25147;52.142;9.960;2023-04-19T05:00:21;101295.25;;;0.30;80.28
39443;BME280;25147;52.142;9.960;2023-04-19T05:02:48;101526.28;;;1.59;80.39
39443;BME280;25147;52.142;9.960;2023-04-19T05:05:15;101495.00;;;1.51;80.57
39443;BME280;25147;52.142;9.960;2023-04-19T05:07:44;101618.34;;;2.28;80.38
39443;BME280;25147;52.142;9.960;2023-04-19T05:10:11;101536.94;;;1.68;80.46
39443;BME280;25147;52.142;9.960;2023-04-19T05:12:38;101799.03;;;3.13;80.34
39443;BME280;25147;52.142;9.960;2023-04-19T05:15:06;101851.16;;;3.72;80.51
39443;BME280;25147;52.142;9.960;2023-04-19T05:17:33;101702.31;;;2.61;80.32
39443;BME280;25147;52.142;9.960;2023-04-19T05:20:00;101825.34;;;3.50;80.66
39443;BME280;25147;52.142;9.960;2023-04-19T05:22:28;101643.56;;;2.57;80.51
39443;BME280;25147;52.142;9.960;2023-04-19T05:24:56;101654.34;;;2.70;80.42
39443;BME280;25147;52.142;9.960;2023-04-19T05:27:23;101513.75;;;1.92;80.44
39443;BME280;25147;52.142;9.960;2023-04-19T05:29:50;101691.13;;;2.87;80.46
39443;BME280;25147;52.142;9.960;2023-04-19T05:32:19;101302.38;;;0.81;80.79
39443;BME280;25147;52.142;9.960;2023-04-19T05:34:46;101854.91;;;4.06;80.51
39443;BME280;25147;52.142;9.960;2023-04-19T05:37:13;101687.53;;;3.06;80.07
39443;BME280;25147;52.142;9.960;2023-04-19T05:39:41;101670.34;;;3.08;80.22
39443;BME280;25147;52.142;9.960;2023-04-19T05:42:09;101312.56;;;1.00;80.00
39443;BME280;25147;52.142;9.960;2023-04-19T05:44:36;101757.00;;;3.45;80.24
39443;BME280;25147;52.142;9.960;2023-04-19T05:47:03;101797.91;;;3.80;80.51
39443;BME280;25147;52.142;9.960;2023-04-19T05:49:30;101851.41;;;4.31;80.96
39443;BME280;25147;52.142;9.960;2023-04-19T05:51:57;101866.31;;;4.37;80.28
39443;BME280;25147;52.142;9.960;2023-04-19T05:54:24;101328.66;;;1.42;79.84
39443;BME280;25147;52.142;9.960;2023-04-19T05:56:52;101837.19;;;4.46;80.30
39443;BME280;25147;52.142;9.960;2023-04-19T05:59:21;101522.44;;;2.68;79.89
39443;BME280;25147;52.142;9.960;2023-04-19T06:01:48;101471.63;;;2.43;78.74
39443;BME280;25147;52.142;9.960;2023-04-19T06:04:14;101741.97;;;4.13;78.57
39443;BME280;25147;52.142;9.960;2023-04-19T06:06:41;101737.50;;;4.07;78.02
39443;BME280;25147;52.142;9.960;2023-04-19T06:09:08;101771.75;;;4.26;77.40
39443;BME280;25147;52.142;9.960;2023-04-19T06:11:36;101507.63;;;2.90;77.30
39443;BME280;25147;52.142;9.960;2023-04-19T06:14:03;101327.78;;;1.91;76.62
39443;BME280;25147;52.142;9.960;2023-04-19T06:16:32;101523.00;;;2.85;76.40
39443;BME280;25147;52.142;9.960;2023-04-19T06:18:59;101515.94;;;3.07;75.94
39443;BME280;25147;52.142;9.960;2023-04-19T06:21:29;101524.56;;;3.07;76.13
39443;BME280;25147;52.142;9.960;2023-04-19T06:23:56;101301.88;;;1.89;75.85
39443;BME280;25147;52.142;9.960;2023-04-19T06:26:23;101536.03;;;3.15;76.03
39443;BME280;25147;52.142;9.960;2023-04-19T06:28:50;101819.50;;;4.90;76.04
39443;BME280;25147;52.142;9.960;2023-04-19T06:31:17;101525.19;;;3.27;75.59
39443;BME280;25147;52.142;9.960;2023-04-19T06:33:46;101527.84;;;3.29;75.67
39443;BME280;25147;52.142;9.960;2023-04-19T06:36:13;101358.69;;;2.40;75.42
39443;BME280;25147;52.142;9.960;2023-04-19T06:38:39;101609.75;;;3.82;74.88
39443;BME280;25147;52.142;9.960;2023-04-19T06:41:09;101709.94;;;4.39;75.25
39443;BME280;25147;52.142;9.960;2023-04-19T06:43:36;101405.28;;;2.69;74.45
39443;BME280;25147;52.142;9.960;2023-04-19T06:46:05;101368.81;;;2.61;74.70
39443;BME280;25147;52.142;9.960;2023-04-19T06:48:32;101835.16;;;5.21;74.88
39443;BME280;25147;52.142;9.960;2023-04-19T06:51:01;101622.91;;;4.17;74.64
39443;BME280;25147;52.142;9.960;2023-04-19T06:53:28;101886.91;;;5.46;75.37
39443;BME280;25147;52.142;9.960;2023-04-19T06:55:56;101527.81;;;3.56;74.92
39443;BME280;25147;52.142;9.960;2023-04-19T06:58:24;101828.38;;;5.58;75.34
39443;BME280;25147;52.142;9.960;2023-04-19T07:00:51;101571.06;;;3.87;73.56
39443;BME280;25147;52.142;9.960;2023-04-19T07:03:18;101610.47;;;4.36;73.17
39443;BME280;25147;52.142;9.960;2023-04-19T07:05:45;101651.03;;;4.64;73.26
39443;BME280;25147;52.142;9.960;2023-04-19T07:08:13;101810.19;;;5.58;73.63
39443;BME280;25147;52.142;9.960;2023-04-19T07:10:40;101469.91;;;3.54;72.73
39443;BME280;25147;52.142;9.960;2023-04-19T07:13:09;101847.94;;;5.77;72.76
39443;BME280;25147;52.142;9.960;2023-04-19T07:15:36;101654.31;;;4.89;72.21
39443;BME280;25147;52.142;9.960;2023-04-19T07:18:03;101546.94;;;4.20;70.97
39443;BME280;25147;52.142;9.960;2023-04-19T07:20:30;101737.69;;;5.34;71.02
39443;BME280;25147;52.142;9.960;2023-04-19T07:22:58;101489.59;;;4.08;71.03
39443;BME280;25147;52.142;9.960;2023-04-19T07:25:26;101837.28;;;6.00;70.36
39443;BME280;25147;52.142;9.960;2023-04-19T07:27:53;101619.72;;;4.90;69.95
39443;BME280;25147;52.142;9.960;2023-04-19T07:30:21;101776.13;;;5.81;70.66
39443;BME280;25147;52.142;9.960;2023-04-19T07:32:48;101825.50;;;6.14;69.50
39443;BME280;25147;52.142;9.960;2023-04-19T07:35:18;101746.44;;;5.71;69.57
39443;BME280;25147;52.142;9.960;2023-04-19T07:37:45;101806.38;;;6.11;69.57
39443;BME280;25147;52.142;9.960;2023-04-19T07:40:12;101656.34;;;5.34;69.61
39443;BME280;25147;52.142;9.960;2023-04-19T07:42:41;101688.16;;;5.61;69.91
39443;BME280;25147;52.142;9.960;2023-04-19T07:45:09;101708.38;;;5.73;70.47
39443;BME280;25147;52.142;9.960;2023-04-19T07:47:36;101784.97;;;6.21;70.23
39443;BME280;25147;52.142;9.960;2023-04-19T07:50:04;101693.03;;;5.84;69.41
39443;BME280;25147;52.142;9.960;2023-04-19T07:52:32;101626.28;;;5.43;68.47
39443;BME280;25147;52.142;9.960;2023-04-19T07:54:59;101478.19;;;4.68;68.81
39443;BME280;25147;52.142;9.960;2023-04-19T07:57:28;101723.00;;;6.03;67.81
39443;BME280;25147;52.142;9.960;2023-04-19T07:59:57;101781.41;;;6.57;66.95
39443;BME280;25147;52.142;9.960;2023-04-19T08:02:26;101814.59;;;6.66;65.97
39443;BME280;25147;52.142;9.960;2023-04-19T08:04:53;101736.78;;;6.38;64.93
39443;BME280;25147;52.142;9.960;2023-04-19T08:07:20;101484.94;;;4.96;63.06
39443;BME280;25147;52.142;9.960;2023-04-19T08:09:48;101755.56;;;6.65;63.27
39443;BME280;25147;52.142;9.960;2023-04-19T08:12:15;101786.31;;;6.82;62.93
39443;BME280;25147;52.142;9.960;2023-04-19T08:14:43;101815.00;;;6.86;62.88
39443;BME280;25147;52.142;9.960;2023-04-19T08:17:12;101778.72;;;6.93;62.62
39443;BME280;25147;52.142;9.960;2023-04-19T08:19:40;101441.31;;;4.79;62.57
39443;BME280;25147;52.142;9.960;2023-04-19T08:22:07;101778.81;;;6.98;61.70
39443;BME280;25147;52.142;9.960;2023-04-19T08:24:35;101599.03;;;6.00;60.62
39443;BME280;25147;52.142;9.960;2023-04-19T08:27:02;101258.03;;;4.04;61.03
39443;BME280;25147;52.142;9.960;2023-04-19T08:29:28;101679.16;;;6.59;60.69
39443;BME280;25147;52.142;9.960;2023-04-19T08:31:55;101775.03;;;7.25;60.33
39443;BME280;25147;52.142;9.960;2023-04-19T08:34:23;101615.41;;;6.37;59.30
39443;BME280;25147;52.142;9.960;2023-04-19T08:36:50;101261.44;;;4.39;57.65
39443;BME280;25147;52.142;9.960;2023-04-19T08:39:17;101750.69;;;7.24;57.69
39443;BME280;25147;52.142;9.960;2023-04-19T08:41:44;101735.03;;;7.21;57.04
39443;BME280;25147;52.142;9.960;2023-04-19T08:44:12;101752.84;;;7.45;57.49
39443;BME280;25147;52.142;9.960;2023-04-19T08:46:41;101237.41;;;4.47;55.20
39443;BME280;25147;52.142;9.960;2023-04-19T08:49:09;101725.81;;;7.40;55.34
39443;BME280;25147;52.142;9.960;2023-04-19T08:51:37;101763.59;;;7.65;55.11
39443;BME280;25147;52.142;9.960;2023-04-19T08:54:06;101552.38;;;6.52;54.66
39443;BME280;25147;52.142;9.960;2023-04-19T08:56:33;101754.31;;;7.81;54.51
39443;BME280;25147;52.142;9.960;2023-04-19T08:59:00;101719.22;;;7.60;53.29
39443;BME280;25147;52.142;9.960;2023-04-19T09:01:27;101654.59;;;7.39;53.07
39443;BME280;25147;52.142;9.960;2023-04-19T09:03:54;101746.78;;;7.98;53.01
39443;BME280;25147;52.142;9.960;2023-04-19T09:06:21;101610.81;;;7.17;53.22
39443;BME280;25147;52.142;9.960;2023-04-19T09:08:49;101643.66;;;7.62;51.65
39443;BME280;25147;52.142;9.960;2023-04-19T09:11:35;101520.06;;;6.90;50.42
39443;BME280;25147;52.142;9.960;2023-04-19T09:14:07;101737.66;;;8.28;48.99
39443;BME280;25147;52.142;9.960;2023-04-19T09:16:34;101602.84;;;7.62;49.16
39443;BME280;25147;52.142;9.960;2023-04-19T09:19:01;101721.22;;;8.36;49.85
39443;BME280;25147;52.142;9.960;2023-04-19T09:21:29;101454.94;;;6.85;49.48
39443;BME280;25147;52.142;9.960;2023-04-19T09:23:57;101520.91;;;7.43;49.74
39443;BME280;25147;52.142;9.960;2023-04-19T09:26:25;101628.66;;;8.07;49.18
39443;BME280;25147;52.142;9.960;2023-04-19T09:28:55;101399.34;;;6.80;48.38
39443;BME280;25147;52.142;9.960;2023-04-19T09:31:22;101577.97;;;7.84;48.33
39443;BME280;25147;52.142;9.960;2023-04-19T09:33:50;101688.75;;;8.78;48.64
39443;BME280;25147;52.142;9.960;2023-04-19T09:36:29;101537.28;;;7.96;47.40
39443;BME280;25147;52.142;9.960;2023-04-19T09:39:01;101494.56;;;7.86;46.68
39443;BME280;25147;52.142;9.960;2023-04-19T09:41:28;101686.41;;;9.03;46.19
39443;BME280;25147;52.142;9.960;2023-04-19T09:44:08;101322.97;;;6.79;46.22
39443;BME280;25147;52.142;9.960;2023-04-19T09:46:36;101684.72;;;9.10;44.83
39443;BME280;25147;52.142;9.960;2023-04-19T09:49:15;101670.00;;;9.16;43.59
39443;BME280;25147;52.142;9.960;2023-04-19T09:51:44;101271.16;;;6.98;40.63
39443;BME280;25147;52.142;9.960;2023-04-19T09:54:18;101176.84;;;6.49;41.10
39443;BME280;25147;52.142;9.960;2023-04-19T09:56:46;101492.59;;;8.44;40.24
39443;BME280;25147;52.142;9.960;2023-04-19T09:59:13;101637.00;;;9.26;39.80
39443;BME280;25147;52.142;9.960;2023-04-19T10:01:43;101695.50;;;9.40;39.93
39443;BME280;25147;52.142;9.960;2023-04-19T10:04:12;101545.00;;;8.63;40.12
39443;BME280;25147;52.142;9.960;2023-04-19T10:06:46;101556.41;;;8.74;41.03
39443;BME280;25147;52.142;9.960;2023-04-19T10:09:13;101634.47;;;9.35;41.47
39443;BME280;25147;52.142;9.960;2023-04-19T10:11:46;101637.94;;;9.36;41.20
39443;BME280;25147;52.142;9.960;2023-04-19T10:14:14;101633.63;;;9.39;41.57
39443;BME280;25147;52.142;9.960;2023-04-19T10:16:41;101543.47;;;8.83;41.68
39443;BME280;25147;52.142;9.960;2023-04-19T10:19:10;101611.88;;;9.43;41.54
39443;BME280;25147;52.142;9.960;2023-04-19T10:21:38;101555.81;;;9.04;41.04
39443;BME280;25147;52.142;9.960;2023-04-19T10:24:07;101632.91;;;9.59;40.02
39443;BME280;25147;52.142;9.960;2023-04-19T10:27:06;101479.78;;;8.71;40.69
39443;BME280;25147;52.142;9.960;2023-04-19T10:29:53;101624.22;;;9.64;40.50
39443;BME280;25147;52.142;9.960;2023-04-19T10:32:20;101627.75;;;9.68;41.26
39443;BME280;25147;52.142;9.960;2023-04-19T10:34:47;101589.31;;;9.58;41.08
39443;BME280;25147;52.142;9.960;2023-04-19T10:37:13;101523.81;;;9.35;40.39
39443;BME280;25147;52.142;9.960;2023-04-19T10:39:42;101510.72;;;9.29;40.71
39443;BME280;25147;52.142;9.960;2023-04-19T10:42:10;101293.94;;;8.01;41.03
39443;BME280;25147;52.142;9.960;2023-04-19T10:44:37;101495.97;;;9.37;40.75
39443;BME280;25147;52.142;9.960;2023-04-19T10:47:06;101284.47;;;8.16;40.69
39443;BME280;25147;52.142;9.960;2023-04-19T10:49:43;101357.91;;;8.62;41.36
39443;BME280;25147;52.142;9.960;2023-04-19T10:52:25;101407.81;;;9.07;41.27
39443;BME280;25147;52.142;9.960;2023-04-19T10:54:54;101548.53;;;9.91;41.83
39443;BME280;25147;52.142;9.960;2023-04-19T10:57:23;101565.13;;;9.99;41.12
39443;BME280;25147;52.142;9.960;2023-04-19T11:00:17;101556.47;;;10.06;41.24
39443;BME280;25147;52.142;9.960;2023-04-19T11:02:44;101539.06;;;10.14;38.56
39443;BME280;25147;52.142;9.960;2023-04-19T11:05:10;101390.53;;;9.33;36.84
39443;BME280;25147;52.142;9.960;2023-04-19T11:07:40;101535.69;;;10.43;36.54
39443;BME280;25147;52.142;9.960;2023-04-19T11:10:08;101509.50;;;10.38;35.16
39443;BME280;25147;52.142;9.960;2023-04-19T11:12:41;101456.19;;;10.16;34.98
39443;BME280;25147;52.142;9.960;2023-04-19T11:15:08;101534.84;;;10.64;34.65
39443;BME280;25147;52.142;9.960;2023-04-19T11:17:38;101356.69;;;9.66;34.76
39443;BME280;25147;52.142;9.960;2023-04-19T11:20:08;101155.97;;;8.44;34.89
39443;BME280;25147;52.142;9.960;2023-04-19T11:22:38;101409.94;;;10.03;35.43
39443;BME280;25147;52.142;9.960;2023-04-19T11:25:09;101347.16;;;9.89;34.28
39443;BME280;25147;52.142;9.960;2023-04-19T11:27:38;101107.22;;;8.36;35.16
39443;BME280;25147;52.142;9.960;2023-04-19T11:30:07;101399.53;;;10.37;34.25
39443;BME280;25147;52.142;9.960;2023-04-19T11:32:36;101492.09;;;10.91;34.40
39443;BME280;25147;52.142;9.960;2023-04-19T11:35:04;101485.09;;;10.90;34.33
39443;BME280;25147;52.142;9.960;2023-04-19T11:37:32;101511.28;;;10.96;34.25
39443;BME280;25147;52.142;9.960;2023-04-19T11:39:59;101215.44;;;9.26;33.81
39443;BME280;25147;52.142;9.960;2023-04-19T11:42:26;101488.59;;;11.01;33.78
39443;BME280;25147;52.142;9.960;2023-04-19T11:44:54;101399.53;;;10.54;33.26
39443;BME280;25147;52.142;9.960;2023-04-19T11:47:23;101172.75;;;9.25;33.15
39443;BME280;25147;52.142;9.960;2023-04-19T11:49:49;101390.81;;;10.59;32.50
39443;BME280;25147;52.142;9.960;2023-04-19T11:52:20;101358.50;;;10.25;33.89
39443;BME280;25147;52.142;9.960;2023-04-19T11:54:48;101438.81;;;10.88;33.19
39443;BME280;25147;52.142;9.960;2023-04-19T11:57:26;101470.22;;;11.12;33.45
39443;BME280;25147;52.142;9.960;2023-04-19T12:00:06;101459.78;;;10.95;32.77
39443;BME280;25147;52.142;9.960;2023-04-19T12:02:39;101456.25;;;10.96;33.67
39443;BME280;25147;52.142;9.960;2023-04-19T12:05:09;101487.69;;;11.10;33.30
39443;BME280;25147;52.142;9.960;2023-04-19T12:07:37;101470.22;;;11.09;33.67
39443;BME280;25147;52.142;9.960;2023-04-19T12:10:22;101462.34;;;11.15;33.62
39443;BME280;25147;52.142;9.960;2023-04-19T12:12:49;101466.72;;;11.19;33.69
39443;BME280;25147;52.142;9.960;2023-04-19T12:15:17;101387.31;;;10.70;33.90
39443;BME280;25147;52.142;9.960;2023-04-19T12:17:58;101278.25;;;9.81;33.27
39443;BME280;25147;52.142;9.960;2023-04-19T12:20:33;101417.88;;;10.83;33.17
39443;BME280;25147;52.142;9.960;2023-04-19T12:23:01;101447.50;;;11.05;33.46
39443;BME280;25147;52.142;9.960;2023-04-19T12:25:28;101471.09;;;11.16;32.57
39443;BME280;25147;52.142;9.960;2023-04-19T12:27:56;101254.72;;;10.04;32.31
39443;BME280;25147;52.142;9.960;2023-04-19T12:30:25;101434.41;;;11.13;32.66
39443;BME280;25147;52.142;9.960;2023-04-19T12:32:52;101417.84;;;10.94;33.45
39443;BME280;25147;52.142;9.960;2023-04-19T12:35:20;101341.06;;;10.67;34.53
39443;BME280;25147;52.142;9.960;2023-04-19T12:37:47;101198.06;;;9.75;33.21
39443;BME280;25147;52.142;9.960;2023-04-19T12:40:14;101430.00;;;11.27;33.86
39443;BME280;25147;52.142;9.960;2023-04-19T12:42:40;101413.41;;;11.19;33.66
39443;BME280;25147;52.142;9.960;2023-04-19T12:45:08;101388.13;;;11.02;33.59
39443;BME280;25147;52.142;9.960;2023-04-19T12:47:37;101251.22;;;10.39;33.45
39443;BME280;25147;52.142;9.960;2023-04-19T12:50:05;101393.34;;;11.07;33.45
39443;BME280;25147;52.142;9.960;2023-04-19T12:52:32;101429.06;;;11.45;33.62
39443;BME280;25147;52.142;9.960;2023-04-19T12:54:58;101429.03;;;11.54;33.81
39443;BME280;25147;52.142;9.960;2023-04-19T12:57:25;101340.06;;;11.14;33.67
39443;BME280;25147;52.142;9.960;2023-04-19T12:59:52;101373.97;;;11.51;34.14
39443;BME280;25147;52.142;9.960;2023-04-19T13:02:19;101369.56;;;11.61;33.57
39443;BME280;25147;52.142;9.960;2023-04-19T13:04:47;101353.81;;;11.62;33.52